Detall de PIREP

Printer-friendly versionPDF version

[2014/12/20 17:30:00]
Flight IATA:CT1004
Pilot Number:012
Company ICAO:CAT
Aircraft Type:B463/A
PAX:100
Aircraft Registration:PAX
Departing Airport: LEDA
Destination Airport: EGLC
Alternate Airport:EGLL
Online: VATSIM
Route:ALOSU G23 GRAUS UM601 PPN UP152 BADRU UP87 MOKOR DCT LOGAN
Flight Level:F280
No Slew and time accel
No pause
Crash detect
Detect pilot in Cockpit between each 30 and 45 minutes
17:30 Zero fuel Weight: 73938 Lbs, Fuel Weight: 20134 Lbs
17:31 VATSIM:No METAR available for LEDA.
17:31 VATSIM:EGLC 201650Z AUTO 28012KT 9999 NCD 09/03 Q1028
17:31 X-MAS CHARTER
17:32 Parking Brakes off
17:37 Take-off
17:37 Take off Weight: 93672 Lbs
17:37 Wind: 000º @ 002 Knots Heading: 313º
17:37 POS N41º 43´ 54´´ E000º 31´ 47´´
17:37 Flaps:1 at 157 Knots
17:37 Gear Up: 162 Knots
17:37 Flaps:0 at 182 Knots
17:49 TOC
17:49 Fuel Weight: 17772 Lb
17:52 Wind:288º@048 Knots Heading: 295º Ground Speed: 365 Knots Altitude 28559 ft
18:07 Wind:292º@040 Knots Heading: 314º Ground Speed: 378 Knots Altitude 28589 ft
18:22 Wind:292º@032 Knots Heading: 004º Ground Speed: 405 Knots Altitude 28628 ft
18:37 Wind:000º@022 Knots Heading: 008º Ground Speed: 388 Knots Altitude 28635 ft
18:52 Wind:002º@022 Knots Heading: 024º Ground Speed: 389 Knots Altitude 28631 ft
19:07 Wind:324º@057 Knots Heading: 019º Ground Speed: 381 Knots Altitude 28585 ft
19:22 Wind:316º@074 Knots Heading: 017º Ground Speed: 377 Knots Altitude 28513 ft
19:25 TOD
19:25 Fuel Weight: 8379 Lb
19:37 Wind:314º@029 Knots Heading: 299º Ground Speed: 214 Knots Altitude 5620 ft
19:40 Flaps:1 at 184 Knots
19:42 Gear Down: 184 Knots
19:42 Flaps:2 at 184 Knots
19:43 Flaps:3 at 164 Knots
19:43 Flaps:4 at 148 Knots
19:45 TouchDown:Rate -219 ft/min Speed: 119 Knots
19:45 VATSIM:EGLC 201920Z AUTO 26012KT 9999 SCT040/// 08/03 Q1030
19:45 Land
19:45 Wind:261º@012 Knots
19:45 Heading: 279º
19:45 Flight Duration: 02:08
19:45 Landing Weight: 81541 Lbs
19:45 POS N51º 30´ 19´´ E000º 03´ 00´´
19:47 Parking brakes on
19:47 Block to Block Duration: 02:15
19:47 Final Fuel: 7497 Lbls
19:47 Spent Fuel: 12636 Lbls
19:47 Flight Length: 753 NM
19:47 TOD Land Length: 79 NM

Exportar CSV

Powered by Drupal - Modified by Danger4k